Latest Weather Observations for Warra

IDT60801

Issued at 9:35 pm EST Friday 29 August 2014 (issued every 30 minutes, with the page automatically refreshed every 10 minutes)

About weather observations | Map of weather stations | Latest weather observations for TAS | Other Formats
Station Details ID: 097024 Name: WARRA Lat: -43.06 Lon: 146.70 Height: 495.0 m
Data from the previous 72 hours. | See also: Recent months at Warra
Date/Time
EST
Temp
°C
App
Temp
°C
Dew
Point
Rel
Hum
%
Delta-T
°C
Wind Press
QNH
hPa
Press
MSL
hPa
Rain
since 9 am
mm
Dir
 
Spd
km/h
Gust
km/h
Spd
kts
Gust
kts
29/09:30pm 6.7 4.8 6.7 100 0.0 N 6 7 3 4 - - 0.2
29/09:00pm 7.1 5.3 7.1 100 0.0 N 6 7 3 4 - - 0.2
29/08:30pm 7.2 6.6 7.2 100 0.0 CALM 0 0 0 0 - - 0.2
29/08:00pm 7.2 6.5 7.1 99 0.0 CALM 0 0 0 0 - - 0.2
29/07:30pm 7.7 6.6 7.0 95 0.3 NNE 2 6 1 3 - - 0.2
29/07:00pm 8.3 6.6 7.4 94 0.4 NNE 6 9 3 5 - - 0.2
29/06:30pm 8.4 7.7 6.9 90 0.7 CALM 0 0 0 0 - - 0.2
29/06:00pm 10.0 8.0 7.3 83 1.3 SSE 7 13 4 7 - - 0.2
29/05:30pm 10.3 8.8 6.8 79 1.7 SW 4 11 2 6 - - 0.2
29/05:00pm 11.9 11.1 6.6 70 2.6 CALM 0 0 0 0 - - 0.2
29/04:30pm 12.8 12.0 6.4 65 3.1 CALM 0 6 0 3 - - 0.2
29/04:00pm 13.8 11.8 6.4 61 3.6 NNE 6 9 3 5 - - 0.2
29/03:30pm 14.2 12.3 6.6 60 3.8 NE 6 9 3 5 - - 0.2
29/03:00pm 14.0 11.9 6.6 61 3.7 E 7 13 4 7 - - 0.2
29/02:30pm 13.9 12.0 6.7 62 3.6 WSW 6 9 3 5 - - 0.2
29/02:00pm 13.0 11.0 6.1 63 3.4 E 6 9 3 5 - - 0.2
29/01:30pm 13.8 11.7 5.7 58 3.9 ESE 6 9 3 5 - - 0.2
29/01:00pm 13.0 10.9 5.9 62 3.4 SSE 6 9 3 5 - - 0.0
29/12:30pm 12.8 10.2 6.2 64 3.2 SE 9 13 5 7 - - 0.0
29/12:00pm 13.2 11.3 7.4 68 2.9 E 7 11 4 6 - - 0.0
29/11:30am 12.4 10.2 6.2 66 3.0 NNE 7 11 4 6 - - 0.0
29/11:00am 12.0 10.0 6.9 71 2.5 ESE 7 11 4 6 - - 0.0
29/10:30am 11.7 10.0 7.4 75 2.1 E 6 9 3 5 - - 0.0
29/10:00am 11.2 9.2 6.3 72 2.4 ENE 6 9 3 5 - - 0.0
29/09:30am 10.2 8.1 6.0 75 2.0 E 6 9 3 5 - - 0.0
29/09:00am 10.0 7.9 6.5 79 1.7 E 7 9 4 5 - - 0.0
29/08:30am 9.8 9.3 7.9 88 0.9 CALM 0 0 0 0 - - 0.0
29/08:00am 7.8 6.0 7.8 100 0.0 W 7 11 4 6 - - 0.0
29/07:30am 6.3 4.1 6.3 100 0.0 W 7 11 4 6 - - 0.0
29/07:00am 5.2 3.0 5.2 100 0.0 W 6 7 3 4 - - 0.0
29/06:30am 5.1 2.3 5.1 100 0.0 W 9 15 5 8 - - 0.0
29/06:00am 4.8 1.9 4.8 100 0.0 W 9 13 5 7 - - 0.0
29/05:30am 5.2 2.4 5.2 100 0.0 WNW 9 13 5 7 - - 0.0
29/05:00am 4.5 1.6 4.5 100 0.0 WNW 9 15 5 8 - - 0.0
29/04:30am 4.5 1.6 4.5 100 0.0 WNW 9 11 5 6 - - 0.0
29/04:00am 5.3 2.9 5.3 100 0.0 W 7 9 4 5 - - 0.0
29/03:30am 5.5 2.8 5.5 100 0.0 W 9 13 5 7 - - 0.0
29/03:00am 6.0 3.8 6.0 100 0.0 W 7 9 4 5 - - 0.0
29/02:30am 6.0 3.8 6.0 100 0.0 WSW 7 9 4 5 - - 0.0
29/02:00am 6.3 5.5 6.3 100 0.0 CALM 0 7 0 4 - - 0.0
29/01:30am 7.3 6.3 7.3 100 0.0 W 2 7 1 4 - - 0.0
29/01:00am 7.6 6.7 7.6 100 0.0 NNW 2 7 1 4 - - 0.0
29/12:30am 7.9 6.7 7.9 100 0.0 SW 4 7 2 4 - - 0.0
29/12:00am 8.0 6.2 8.0 100 0.0 W 7 9 4 5 - - 0.0
 
Date/Time
EST
Temp
°C
App
Temp
°C
Dew
Point
Rel
Hum
%
Delta-T
°C
Wind Press
QNH
hPa
Press
MSL
hPa
Rain
since 9 am
mm
Dir
 
Spd
km/h
Gust
km/h
Spd
kts
Gust
kts
28/11:30pm 8.0 6.2 8.0 100 0.0 NW 7 7 4 4 - - 0.0
28/11:00pm 8.2 7.8 8.1 99 0.0 CALM 0 6 0 3 - - 0.0
28/10:30pm 8.4 8.0 8.3 99 0.0 CALM 0 0 0 0 - - 0.0
28/10:00pm 8.4 8.0 8.3 99 0.0 CALM 0 0 0 0 - - 0.0
28/09:30pm 8.5 8.1 8.2 98 0.1 CALM 0 0 0 0 - - 0.0
28/09:00pm 8.3 7.8 7.9 97 0.2 CALM 0 0 0 0 - - 0.0
28/08:30pm 8.5 7.9 7.6 94 0.4 CALM 0 0 0 0 - - 0.0
28/08:00pm 9.2 8.7 8.0 92 0.6 CALM 0 6 0 3 - - 0.0
28/07:30pm 9.2 7.6 7.8 91 0.7 S 6 7 3 4 - - 0.0
28/07:00pm 9.8 8.1 8.2 90 0.8 SSE 7 11 4 6 - - 0.0
28/06:30pm 9.8 8.2 8.2 90 0.8 SE 6 9 3 5 - - 0.0
28/06:00pm 10.2 8.4 8.0 86 1.1 SSE 7 9 4 5 - - 0.0
28/05:30pm 10.7 8.5 7.9 83 1.4 S 9 13 5 7 - - 0.0
28/05:00pm 11.3 10.8 8.0 80 1.7 CALM 0 0 0 0 - - 0.0
28/04:30pm 12.3 11.7 7.4 72 2.4 CALM 0 6 0 3 - - 0.0
28/04:00pm 13.0 11.1 6.6 65 3.2 W 6 9 3 5 - - 0.0
28/03:30pm 13.2 11.1 6.5 64 3.3 WSW 7 11 4 6 - - 0.0
28/03:00pm 13.4 12.3 7.0 65 3.2 S 2 9 1 5 - - 0.0
28/02:30pm 12.3 10.2 6.8 69 2.7 SSW 7 11 4 6 - - 0.0
28/02:00pm 12.6 10.4 6.4 66 3.0 SW 7 11 4 6 - - 0.0
28/01:30pm 12.4 10.8 7.9 74 2.3 E 6 9 3 5 - - 0.0
28/01:00pm 11.9 10.3 8.0 77 2.0 ESE 6 13 3 7 - - 0.0
28/12:30pm 11.6 10.8 8.1 79 1.8 S 2 7 1 4 - - 0.0
28/12:00pm 11.1 9.2 7.6 79 1.7 SSE 7 11 4 6 - - 0.0
28/11:30am 11.1 9.6 8.3 83 1.4 E 6 7 3 4 - - 0.0
28/11:00am 10.4 8.8 7.8 84 1.3 ESE 6 7 3 4 - - 0.0
28/10:30am 10.2 9.2 7.3 82 1.4 ESE 2 7 1 4 - - 0.0
28/10:00am 10.5 9.1 7.4 81 1.5 ENE 4 7 2 4 - - 0.0
28/09:30am 9.6 8.8 8.2 91 0.7 ENE 2 7 1 4 - - 0.0
28/09:00am 10.3 9.8 7.7 84 1.3 CALM 0 0 0 0 - - 0.2
28/08:30am 9.6 9.1 8.0 90 0.8 CALM 0 0 0 0 - - 0.2
28/08:00am 8.0 7.5 8.0 100 0.0 CALM 0 0 0 0 - - 0.2
28/07:30am 7.3 6.7 7.3 100 0.0 CALM 0 0 0 0 - - 0.2
28/07:00am 6.6 4.5 6.6 100 0.0 WSW 7 9 4 5 - - 0.2
28/06:30am 6.4 4.2 6.4 100 0.0 N 7 7 4 4 - - 0.2
28/06:00am 6.7 5.2 6.7 100 0.0 WNW 4 7 2 4 - - 0.0
28/05:30am 6.3 4.3 6.3 100 0.0 WSW 6 7 3 4 - - 0.0
28/05:00am 6.2 3.6 6.2 100 0.0 WSW 9 11 5 6 - - 0.0
28/04:30am 6.4 5.6 6.3 99 0.0 CALM 0 0 0 0 - - 0.0
28/04:00am 6.6 5.8 6.5 99 0.0 CALM 0 0 0 0 - - 0.0
28/03:30am 6.5 5.7 6.4 99 0.0 CALM 0 0 0 0 - - 0.0
28/03:00am 6.7 4.6 6.0 95 0.3 WSW 6 7 3 4 - - 0.0
28/02:30am 7.0 5.6 5.5 90 0.7 E 2 6 1 3 - - 0.0
28/02:00am 7.5 5.2 5.5 87 0.9 NNW 7 9 4 5 - - 0.0
28/01:30am 7.8 5.1 5.4 85 1.1 N 9 13 5 7 - - 0.0
28/01:00am 7.7 5.0 5.7 87 0.9 N 9 11 5 6 - - 0.0
28/12:30am 7.3 4.6 5.6 89 0.8 N 9 11 5 6 - - 0.0
28/12:00am 7.3 4.7 5.9 91 0.6 N 9 11 5 6 - - 0.0
 
Date/Time
EST
Temp
°C
App
Temp
°C
Dew
Point
Rel
Hum
%
Delta-T
°C
Wind Press
QNH
hPa
Press
MSL
hPa
Rain
since 9 am
mm
Dir
 
Spd
km/h
Gust
km/h
Spd
kts
Gust
kts
27/11:30pm 7.2 5.7 6.8 97 0.2 WNW 4 6 2 3 - - 0.0
27/11:00pm 6.7 4.5 5.2 90 0.7 NNW 6 9 3 5 - - 0.0
27/10:30pm 7.4 5.1 5.5 88 0.9 N 7 9 4 5 - - 0.0
27/10:00pm 8.0 7.2 6.3 89 0.8 CALM 0 7 0 4 - - 0.0
27/09:30pm 8.0 5.7 4.8 80 1.5 SSW 6 7 3 4 - - 0.0
27/09:00pm 8.0 5.6 4.2 77 1.7 SSW 6 7 3 4 - - 0.0
27/08:30pm 8.9 6.6 4.7 75 1.9 S 6 9 3 5 - - 0.0
27/08:00pm 8.2 7.0 4.6 78 1.6 CALM 0 0 0 0 - - 0.0
27/07:30pm 9.5 7.0 4.5 71 2.3 N 7 7 4 4 - - 0.0
27/07:00pm 10.4 7.8 4.3 66 2.8 SSE 7 11 4 6 - - 0.0
27/06:30pm 10.3 7.4 4.9 69 2.5 SSE 9 15 5 8 - - 0.0
27/06:00pm 9.9 7.3 4.3 68 2.6 S 7 11 4 6 - - 0.0
27/05:30pm 9.9 7.1 3.0 62 3.1 W 7 9 4 5 - - 0.0
27/05:00pm 11.7 8.5 3.2 56 3.8 W 9 13 5 7 - - 0.0
27/04:30pm 13.5 10.8 3.6 51 4.6 WSW 7 17 4 9 - - 0.0
27/04:00pm 14.5 11.2 2.7 45 5.4 SW 9 17 5 9 - - 0.0
27/03:30pm 15.4 12.7 2.6 42 5.9 E 6 11 3 6 - - 0.0
27/03:00pm 16.0 13.7 4.7 47 5.5 N 6 9 3 5 - - 0.0
27/02:30pm 15.4 12.7 3.9 46 5.4 S 7 13 4 7 - - 0.0
27/02:00pm 15.6 12.2 1.7 39 6.3 WSW 9 17 5 9 - - 0.0
27/01:30pm 14.7 12.7 7.0 60 3.9 ESE 7 11 4 6 - - 0.0
27/01:00pm 14.7 11.6 3.8 48 5.1 S 9 15 5 8 - - 0.0
27/12:30pm 14.4 12.3 6.5 59 3.9 NE 7 11 4 6 - - 0.0
27/12:00pm 13.7 11.6 6.8 63 3.4 N 7 13 4 7 - - 0.0
27/11:30am 13.8 11.6 8.0 68 3.0 NNE 9 11 5 6 - - 0.0
27/11:00am 12.3 10.0 5.5 63 3.3 E 7 11 4 6 - - 0.0
27/10:30am 11.4 9.0 5.1 65 3.0 ESE 7 9 4 5 - - 0.0
27/10:00am 11.3 9.1 6.0 70 2.5 ESE 7 9 4 5 - - 0.0
27/09:30am 10.6 8.8 5.4 70 2.4 SE 4 7 2 4 - - 0.0
27/09:00am 9.3 7.0 5.7 78 1.7 ESE 7 9 4 5 - - 0.0
27/08:30am 9.3 7.6 6.0 80 1.6 SE 4 6 2 3 - - 0.0
27/08:00am 8.3 7.4 6.1 86 1.0 CALM 0 0 0 0 - - 0.0
27/07:30am 6.1 4.0 5.7 97 0.2 S 6 9 3 5 - - 0.0
27/07:00am 4.6 2.1 4.5 99 0.0 WNW 7 9 4 5 - - 0.0
27/06:30am 5.3 3.0 4.7 96 0.3 N 6 9 3 5 - - 0.0
27/06:00am 4.3 1.9 4.2 99 0.0 W 6 9 3 5 - - 0.0
27/05:30am 5.6 2.7 4.9 95 0.3 N 9 13 5 7 - - 0.0
27/05:00am 6.2 3.2 6.1 99 0.0 N 11 13 6 7 - - 0.0
27/04:30am 5.3 2.5 5.3 100 0.0 N 9 11 5 6 - - 0.0
27/04:00am 5.4 4.4 5.4 100 0.0 CALM 0 6 0 3 - - 0.0
27/03:30am 5.6 3.3 5.6 100 0.0 NE 7 11 4 6 - - 0.0
27/03:00am 5.3 3.1 5.3 100 0.0 S 6 7 3 4 - - 0.0
27/02:30am 5.7 4.7 5.7 100 0.0 CALM 0 0 0 0 - - 0.0
27/02:00am 5.6 4.2 5.6 100 0.0 WNW 2 6 1 3 - - 0.0
27/01:30am 6.1 3.9 6.1 100 0.0 N 7 11 4 6 - - 0.0
27/01:00am 6.0 3.9 6.0 100 0.0 N 6 9 3 5 - - 0.0
27/12:30am 6.7 5.6 6.7 100 0.0 NNW 2 9 1 5 - - 0.0
27/12:00am 6.9 4.5 6.9 100 0.0 N 9 11 5 6 - - 0.0
 
Date/Time
EST
Temp
°C
App
Temp
°C
Dew
Point
Rel
Hum
%
Delta-T
°C
Wind Press
QNH
hPa
Press
MSL
hPa
Rain
since 9 am
mm
Dir
 
Spd
km/h
Gust
km/h
Spd
kts
Gust
kts
26/11:30pm 6.9 5.4 6.9 100 0.0 NW 4 7 2 4 - - 0.0
26/11:00pm 6.8 6.1 6.8 100 0.0 CALM 0 0 0 0 - - 0.0
26/10:30pm 7.8 5.2 7.8 100 0.0 WNW 11 15 6 8 - - 0.0
26/10:00pm 8.2 6.5 8.2 100 0.0 N 7 9 4 5 - - 0.0

Other Formats:

Comma delimited format used in spreadsheet applications
http://www.bom.gov.au/fwo/IDT60801/IDT60801.95962.axf

JavaScript Object Notation format (JSON) in row-major order
http://www.bom.gov.au/fwo/IDT60801/IDT60801.95962.json